Time;durP1;ratioP1;P1;durP2;ratioP2;P2;SDS_P1;SDS_P2;PMS_P1;PMS_P2;Temp;Humidity;BMP_temperature;BMP_pressure;BME280_temperature;BME280_humidity;BME280_pressure;Samples;Min_cycle;Max_cycle;Signal;HPM_P1;HPM_P2
2022/12/09 00:01:44;;;;;;;13.73;6.40;;;;;;;1.00;100.00;100595.69;5114030;28;20065;-87
2022/12/09 00:04:10;;;;;;;13.38;5.80;;;;;;;1.00;100.00;100595.69;5113473;28;20028;-87
2022/12/09 00:06:35;;;;;;;11.70;5.40;;;;;;;0.97;100.00;100593.06;5113995;28;20034;-87
2022/12/09 00:09:00;;;;;;;11.75;5.55;;;;;;;0.99;100.00;100595.66;5112476;22;20505;-87
2022/12/09 00:11:26;;;;;;;13.32;6.15;;;;;;;0.98;100.00;100596.47;5092950;28;20027;-87
2022/12/09 00:13:54;;;;;;;12.93;6.00;;;;;;;0.97;100.00;100595.63;5093673;28;20077;-87
2022/12/09 00:16:26;;;;;;;12.75;5.90;;;;;;;0.96;100.00;100596.47;5092965;28;20020;-87
2022/12/09 00:18:51;;;;;;;12.52;6.07;;;;;;;0.98;100.00;100591.38;5093360;28;20061;-87
2022/12/09 00:21:42;;;;;;;12.70;6.10;;;;;;;1.01;100.00;100594.88;5093407;28;20466;-88
2022/12/09 00:24:10;;;;;;;11.90;5.80;;;;;;;0.99;100.00;100585.44;5093101;28;20032;-87
2022/12/09 00:26:54;;;;;;;13.48;6.03;;;;;;;1.00;100.00;100587.16;5093598;28;20058;-87
2022/12/09 00:29:19;;;;;;;13.10;5.97;;;;;;;0.99;100.00;100588.88;5093031;28;20511;-87
2022/12/09 00:31:45;;;;;;;14.00;6.18;;;;;;;1.04;100.00;100583.84;5093011;28;20091;-87
2022/12/09 00:34:12;;;;;;;13.23;6.30;;;;;;;1.05;100.00;100588.97;5100967;22;20550;-88
2022/12/09 00:36:54;;;;;;;11.65;5.65;;;;;;;1.05;100.00;100590.69;5093528;28;20049;-87
2022/12/09 00:39:19;;;;;;;12.35;5.78;;;;;;;1.06;100.00;100588.13;5093057;28;20433;-87
2022/12/09 00:41:45;;;;;;;12.02;5.75;;;;;;;1.10;100.00;100593.31;5093109;28;20028;-87
2022/12/09 00:44:30;;;;;;;12.75;6.18;;;;;;;1.11;100.00;100597.59;5092673;28;20020;-88
2022/12/09 00:46:56;;;;;;;13.60;6.30;;;;;;;1.10;100.00;100594.16;5092334;28;20043;-87
2022/12/09 00:49:21;;;;;;;14.95;6.65;;;;;;;1.11;100.00;100590.78;5092896;28;20377;-87
2022/12/09 00:52:01;;;;;;;13.40;6.28;;;;;;;1.10;100.00;100594.16;5093241;28;20031;-87
2022/12/09 00:54:36;;;;;;;13.48;6.40;;;;;;;1.15;100.00;100594.25;5092879;28;20464;-87
2022/12/09 00:57:01;;;;;;;14.57;6.82;;;;;;;1.16;100.00;100590.88;5093290;28;20032;-88
2022/12/09 00:59:27;;;;;;;14.40;6.68;;;;;;;1.15;100.00;100587.47;5092279;28;20031;-87
2022/12/09 01:01:52;;;;;;;14.27;6.32;;;;;;;1.18;100.00;100584.94;5092734;28;20031;-87
2022/12/09 01:04:34;;;;;;;13.85;6.20;;;;;;;1.22;100.00;100586.75;5095596;28;20024;-87
2022/12/09 01:07:08;;;;;;;14.27;6.10;;;;;;;1.22;100.00;100585.88;5096416;28;20060;-87
2022/12/09 01:09:42;;;;;;;13.82;6.43;;;;;;;1.22;100.00;100585.88;5096900;28;20028;-87
2022/12/09 01:12:07;;;;;;;15.13;6.60;;;;;;;1.26;100.00;100586.81;5096252;28;20043;-87
2022/12/09 01:14:48;;;;;;;13.27;5.97;;;;;;;1.26;100.00;100584.25;5096219;28;20051;-87
2022/12/09 01:17:13;;;;;;;14.75;6.45;;;;;;;1.28;100.00;100583.44;5095964;28;20032;-87
2022/12/09 01:19:39;;;;;;;13.73;6.22;;;;;;;1.29;100.00;100586.88;5096234;28;20377;-87
2022/12/09 01:22:04;;;;;;;13.82;6.03;;;;;;;1.27;100.00;100588.53;5095644;28;20487;-87
2022/12/09 01:24:30;;;;;;;13.65;5.90;;;;;;;1.29;100.00;100600.50;5096259;28;20035;-87
2022/12/09 01:26:55;;;;;;;13.27;6.00;;;;;;;1.29;100.00;100600.50;5095968;28;20036;-87
2022/12/09 01:29:35;;;;;;;13.50;5.90;;;;;;;1.28;100.00;100603.88;5095928;28;20089;-87
2022/12/09 01:32:00;;;;;;;13.63;5.65;;;;;;;1.26;100.00;100599.59;5096376;28;20039;-87
2022/12/09 01:34:26;;;;;;;15.00;6.78;;;;;;;1.28;100.00;100609.00;5095598;28;20115;-87
2022/12/09 01:37:00;;;;;;;16.35;7.00;;;;;;;1.28;100.00;100603.88;5096040;28;20031;-87
2022/12/09 01:39:26;;;;;;;13.93;6.35;;;;;;;1.26;100.00;100600.44;5096269;28;20115;-87
2022/12/09 01:41:51;;;;;;;15.77;6.90;;;;;;;1.25;100.00;100605.53;5095645;28;20476;-88
2022/12/09 01:44:36;;;;;;;14.98;6.78;;;;;;;1.23;100.00;100597.84;5096103;28;20031;-87
2022/12/09 01:47:02;;;;;;;14.13;6.10;;;;;;;1.25;100.00;100600.41;5095776;28;20101;-88
2022/12/09 01:49:51;;;;;;;15.60;6.57;;;;;;;1.26;100.00;100604.69;5095075;28;20047;-87
2022/12/09 01:52:26;;;;;;;15.65;6.53;;;;;;;1.28;100.00;100603.88;5095499;28;20016;-87
2022/12/09 01:55:00;;;;;;;16.13;6.72;;;;;;;1.28;100.00;100600.47;5095459;28;20020;-87
2022/12/09 01:57:26;;;;;;;16.75;7.20;;;;;;;1.30;100.00;100598.78;5095330;28;20157;-88
2022/12/09 01:59:52;;;;;;;16.40;7.10;;;;;;;1.33;100.00;100609.97;5134910;22;20140;-88
2022/12/09 02:02:19;;;;;;;16.85;7.22;;;;;;;1.36;100.00;100607.44;5054450;28;20025;-87
2022/12/09 02:04:47;;;;;;;16.38;7.07;;;;;;;1.37;100.00;100598.94;5055480;28;20051;-88
2022/12/09 02:07:38;;;;;;;15.43;6.53;;;;;;;1.39;100.00;100604.09;5055088;28;20031;-87
2022/12/09 02:10:14;;;;;;;16.08;6.80;;;;;;;1.36;100.00;100599.78;5054761;28;20464;-87
2022/12/09 02:15:24;;;;;;;17.95;7.32;;;;;;;1.37;100.00;100606.63;5072113;28;20045;-87
2022/12/09 02:18:31;;;;;;;18.27;7.78;;;;;;;1.39;100.00;100604.94;5074563;28;20454;-87
2022/12/09 02:21:06;;;;;;;18.02;7.93;;;;;;;1.41;100.00;100607.53;5066664;28;20037;-87
2022/12/09 02:23:51;;;;;;;18.73;8.05;;;;;;;1.44;100.00;100604.19;5074924;28;20023;-88
2022/12/09 02:26:38;;;;;;;18.17;7.90;;;;;;;1.44;100.00;100605.03;5074312;28;20044;-87
2022/12/09 02:29:17;;;;;;;19.30;8.80;;;;;;;1.45;100.00;100605.91;5074092;28;20551;-87
2022/12/09 02:32:21;;;;;;;19.70;8.88;;;;;;;1.45;100.00;100606.75;5075068;28;20028;-88
2022/12/09 02:35:09;;;;;;;19.30;8.18;;;;;;;1.46;100.00;100605.09;5075038;28;20376;-87
2022/12/09 02:37:55;;;;;;;19.25;8.52;;;;;;;1.46;100.00;100605.09;5074174;28;20021;-87
2022/12/09 02:40:32;;;;;;;18.00;7.65;;;;;;;1.47;100.00;100604.22;5074864;28;20021;-87
2022/12/09 02:43:01;;;;;;;18.60;8.20;;;;;;;1.47;100.00;100599.97;5074610;28;20031;-88
2022/12/09 02:45:29;;;;;;;19.58;8.75;;;;;;;1.48;100.00;100595.72;5074078;28;20021;-87
2022/12/09 02:47:59;;;;;;;18.38;7.97;;;;;;;1.47;100.00;100604.22;5074716;28;20074;-87
2022/12/09 02:50:29;;;;;;;19.58;8.45;;;;;;;1.46;100.00;100598.25;5074182;28;20020;-87
2022/12/09 02:53:00;;;;;;;18.88;8.18;;;;;;;1.46;100.00;100592.28;5073667;28;20485;-88
2022/12/09 02:55:28;;;;;;;21.15;9.30;;;;;;;1.42;100.00;100593.06;5074213;28;20024;-87
2022/12/09 02:57:58;;;;;;;26.33;12.77;;;;;;;1.34;100.00;100586.13;5073571;28;20021;-87
2022/12/09 03:00:26;;;;;;;25.05;12.52;;;;;;;1.29;100.00;100590.28;5073651;28;20028;-88
2022/12/09 03:02:56;;;;;;;23.33;11.40;;;;;;;1.27;100.00;100591.94;5074479;28;20028;-87
2022/12/09 03:05:24;;;;;;;25.40;12.80;;;;;;;1.25;100.00;100593.59;5073360;28;20021;-87
2022/12/09 03:08:08;;;;;;;23.05;10.68;;;;;;;1.26;100.00;100591.91;5074070;28;20534;-88
2022/12/09 03:10:42;;;;;;;23.85;11.40;;;;;;;1.23;100.00;100593.56;5074184;28;20512;-87
2022/12/09 03:13:37;;;;;;;22.10;10.60;;;;;;;1.25;100.00;100585.06;5073081;28;20118;-87
2022/12/09 03:16:21;;;;;;;22.05;10.50;;;;;;;1.22;100.00;100583.34;5073806;28;20103;-87
2022/12/09 03:18:54;;;;;;;20.75;9.35;;;;;;;1.23;100.00;100580.78;5073987;28;20028;-87
2022/12/09 03:21:22;;;;;;;21.20;9.43;;;;;;;1.26;100.00;100571.47;5073050;28;20032;-87
2022/12/09 03:23:51;;;;;;;20.48;8.98;;;;;;;1.30;100.00;100581.78;5074339;28;20016;-88
2022/12/09 03:26:17;;;;;;;19.92;8.43;;;;;;;1.31;100.00;100575.81;5073588;28;20028;-87
2022/12/09 03:28:49;;;;;;;18.95;8.15;;;;;;;1.32;100.00;100572.44;5073409;28;20119;-88
2022/12/09 03:31:18;;;;;;;19.17;7.88;;;;;;;1.33;100.00;100571.63;5074004;28;20075;-87
2022/12/09 03:36:21;;;;;;;20.27;8.32;;;;;;;1.34;100.00;100562.22;5079963;22;20056;-87
2022/12/09 03:38:50;;;;;;;24.33;11.85;;;;;;;1.28;100.00;100559.56;5073388;28;20020;-88
2022/12/09 03:41:23;;;;;;;25.50;12.73;;;;;;;1.27;100.00;100560.41;5073080;28;20031;-88
2022/12/09 03:44:00;;;;;;;25.85;12.50;;;;;;;1.27;100.00;100565.53;5073441;28;20031;-87
2022/12/09 03:46:28;;;;;;;23.50;11.30;;;;;;;1.26;100.00;100556.97;5073272;28;20068;-88
2022/12/09 03:48:54;;;;;;;23.15;10.52;;;;;;;1.27;100.00;100558.69;5071927;22;20052;-86
2022/12/09 03:51:33;;;;;;;31.08;16.60;;;;;;;1.21;100.00;100561.16;5053422;28;20021;-88
2022/12/09 03:54:01;;;;;;;31.20;15.60;;;;;;;1.19;100.00;100562.81;5053254;28;20029;-87
2022/12/09 03:56:32;;;;;;;35.50;19.38;;;;;;;1.10;100.00;100554.97;5052579;28;20048;-87
2022/12/09 03:59:00;;;;;;;40.58;21.80;;;;;;;1.05;100.00;100560.84;5053513;28;20036;-87
2022/12/09 04:01:28;;;;;;;34.80;19.13;;;;;;;1.08;100.00;100565.16;5053496;28;20033;-87
2022/12/09 04:03:55;;;;;;;30.73;16.15;;;;;;;1.11;100.00;100566.94;5052759;28;20027;-87
2022/12/09 04:06:21;;;;;;;30.27;16.13;;;;;;;1.13;100.00;100566.13;5052957;28;20056;-87
2022/12/09 04:08:47;;;;;;;33.00;17.98;;;;;;;1.12;100.00;100566.94;5053413;28;20358;-87
2022/12/09 04:14:06;;;;;;;30.35;15.65;;;;;;;1.07;100.00;100561.75;5281387;22;20048;-87
2022/12/09 04:16:51;;;;;;;28.08;15.18;;;;;;;1.08;100.00;100557.50;5093213;28;20042;-87
2022/12/09 04:19:17;;;;;;;27.13;14.40;;;;;;;1.07;100.00;100556.63;5092644;28;20055;-87
2022/12/09 04:21:42;;;;;;;27.27;14.60;;;;;;;1.06;100.00;100552.34;5093628;28;20456;-87
2022/12/09 04:24:08;;;;;;;31.40;17.73;;;;;;;1.03;100.00;100554.84;5091938;28;20533;-87
2022/12/09 04:27:18;;;;;;;32.05;17.23;;;;;;;0.98;100.00;100550.47;5093459;28;20410;-88
2022/12/09 04:30:00;;;;;;;28.48;14.98;;;;;;;1.00;100.00;100551.38;4991859;28;20098;-87
2022/12/09 04:32:43;;;;;;;26.63;14.30;;;;;;;1.00;100.00;100551.38;5023534;28;20396;-87
2022/12/09 04:35:24;;;;;;;27.95;14.30;;;;;;;1.01;100.00;100553.97;5093031;28;20525;-87
2022/12/09 04:37:49;;;;;;;26.48;13.82;;;;;;;1.04;100.00;100550.63;5153091;22;20036;-87
2022/12/09 04:40:18;;;;;;;26.48;13.82;;;;;;;1.05;100.00;100555.75;5096745;28;20035;-88
2022/12/09 04:42:44;;;;;;;25.88;13.18;;;;;;;1.07;100.00;100548.09;5096940;28;20024;-87
2022/12/09 04:45:09;;;;;;;23.00;11.75;;;;;;;1.07;100.00;100546.41;5096776;28;20031;-87
2022/12/09 04:47:34;;;;;;;21.80;11.20;;;;;;;1.06;100.00;100549.81;5096981;28;20086;-87
2022/12/09 04:50:00;;;;;;;22.38;10.70;;;;;;;1.08;100.00;100542.16;5096860;28;20028;-87
2022/12/09 04:52:25;;;;;;;22.00;10.82;;;;;;;1.12;100.00;100545.66;5119998;22;20028;-87
2022/12/09 04:54:50;;;;;;;22.13;10.77;;;;;;;1.15;100.00;100541.44;5076486;28;20029;-88
2022/12/09 04:57:17;;;;;;;22.23;10.98;;;;;;;1.18;100.00;100554.28;5076532;28;20028;-87
2022/12/09 04:59:42;;;;;;;20.80;9.95;;;;;;;1.20;100.00;100556.88;5076596;28;20055;-87
2022/12/09 05:02:07;;;;;;;22.05;10.90;;;;;;;1.22;100.00;100557.78;5076113;28;20052;-88
2022/12/09 05:04:33;;;;;;;31.02;16.75;;;;;;;1.15;100.00;100555.91;5076519;28;20457;-87
2022/12/09 05:06:58;;;;;;;40.28;23.85;;;;;;;0.96;100.00;100554.72;5076009;28;20024;-87
2022/12/09 05:09:23;;;;;;;42.38;24.45;;;;;;;0.94;100.00;100553.81;5076126;28;20423;-87
2022/12/09 05:11:50;;;;;;;35.58;20.98;;;;;;;0.94;100.00;100549.56;5076012;28;20384;-87
2022/12/09 05:14:16;;;;;;;;;;;;;;;0.97;100.00;100552.19;5084248;22;20041;-87
2022/12/09 05:16:41;;;;;;;30.17;16.77;;;;;;;0.99;100.00;100552.22;5075622;28;19913;-87
2022/12/09 05:19:25;;;;;;;31.27;18.02;;;;;;;0.94;100.00;100556.38;5074431;28;20116;-87
2022/12/09 05:21:50;;;;;;;29.70;16.60;;;;;;;0.92;100.00;100548.66;5076040;28;20504;-87
2022/12/09 05:24:16;;;;;;;28.75;16.20;;;;;;;0.92;100.00;100551.22;5075528;28;20033;-88
2022/12/09 05:26:41;;;;;;;26.92;14.45;;;;;;;0.96;100.00;100550.47;5075475;28;20119;-87
2022/12/09 05:29:22;;;;;;;25.88;13.20;;;;;;;0.95;100.00;100545.34;5075646;28;20048;-88
2022/12/09 05:32:02;;;;;;;23.30;11.52;;;;;;;0.99;100.00;100549.66;5075700;28;20029;-87
2022/12/09 05:34:45;;;;;;;23.15;10.95;;;;;;;1.03;100.00;100552.28;5076076;28;20030;-88
2022/12/09 05:37:14;;;;;;;24.33;13.07;;;;;;;1.02;100.00;100552.28;5075586;28;20040;-87
2022/12/09 05:39:40;;;;;;;23.77;12.48;;;;;;;1.00;100.00;100549.69;5093727;22;20021;-87
2022/12/09 05:42:08;;;;;;;23.27;11.95;;;;;;;1.01;100.00;100556.53;5075045;28;20456;-87
2022/12/09 05:44:33;;;;;;;22.80;11.20;;;;;;;1.04;100.00;100554.03;5075831;28;20434;-87
2022/12/09 05:46:58;;;;;;;22.52;11.20;;;;;;;1.07;100.00;100556.63;5075536;28;20024;-87
2022/12/09 05:49:26;;;;;;;21.13;10.32;;;;;;;1.10;100.00;100545.59;5074593;28;20016;-87
2022/12/09 05:51:52;;;;;;;22.33;10.60;;;;;;;1.15;100.00;100553.34;5087106;22;20054;-88
2022/12/09 05:54:18;;;;;;;20.63;10.00;;;;;;;1.18;100.00;100554.28;5095694;28;20048;-87
2022/12/09 05:56:43;;;;;;;20.65;9.63;;;;;;;1.20;100.00;100544.09;5095140;28;20510;-87
2022/12/09 05:59:09;;;;;;;20.42;9.30;;;;;;;1.20;100.00;100550.06;5105333;22;20102;-87
2022/12/09 06:01:34;;;;;;;21.08;9.95;;;;;;;1.19;100.00;100543.22;5095254;28;20079;-87
2022/12/09 06:03:59;;;;;;;19.95;9.32;;;;;;;1.19;100.00;100550.03;5095439;28;20048;-87
2022/12/09 06:06:26;;;;;;;21.05;9.30;;;;;;;1.16;100.00;100540.63;5095026;28;20028;-87
2022/12/09 06:08:55;;;;;;;20.73;9.43;;;;;;;1.16;100.00;100537.19;5095488;28;20020;-87
2022/12/09 06:11:30;;;;;;;18.27;8.25;;;;;;;1.14;100.00;100541.41;5095232;28;20410;-87
2022/12/09 06:14:17;;;;;;;19.98;8.93;;;;;;;1.17;100.00;100539.78;5095162;28;20032;-87
2022/12/09 06:17:00;;;;;;;19.55;8.48;;;;;;;1.17;100.00;100539.78;5095139;28;20027;-87
2022/12/09 06:19:25;;;;;;;20.85;8.88;;;;;;;1.20;100.00;100538.97;5095174;28;20035;-87
2022/12/09 06:22:22;;;;;;;19.05;8.32;;;;;;;1.21;100.00;100543.25;5094884;28;20522;-87
2022/12/09 06:25:03;;;;;;;;;;;;;;;1.23;100.00;100539.03;5095321;28;20077;-87
2022/12/09 06:27:34;;;;;;;18.75;8.38;;;;;;;1.24;100.00;100540.75;5094785;28;19973;-88
2022/12/09 06:30:17;;;;;;;19.45;8.48;;;;;;;1.25;100.00;100529.69;5094828;28;20077;-87
2022/12/09 06:32:43;;;;;;;17.92;8.00;;;;;;;1.27;100.00;100548.47;5094995;28;20020;-88
2022/12/09 06:35:17;;;;;;;19.02;8.60;;;;;;;1.24;100.00;100535.63;5095083;28;20045;-87
2022/12/09 06:38:00;;;;;;;19.48;8.73;;;;;;;1.22;100.00;100537.31;5095065;28;20090;-87
2022/12/09 06:40:26;;;;;;;19.58;8.68;;;;;;;1.23;100.00;100539.03;5094181;28;20020;-88
2022/12/09 06:42:52;;;;;;;19.85;8.65;;;;;;;1.25;100.00;100534.78;5094599;28;20392;-88
2022/12/09 06:45:18;;;;;;;20.70;9.32;;;;;;;1.25;100.00;100545.03;5093485;28;20028;-88
2022/12/09 06:47:52;;;;;;;21.20;10.03;;;;;;;1.27;100.00;100543.34;5094444;28;20050;-87
2022/12/09 06:50:32;;;;;;;22.00;10.20;;;;;;;1.29;100.00;100538.28;5094368;28;20108;-87
2022/12/09 06:52:58;;;;;;;34.30;20.17;;;;;;;1.14;100.00;100541.41;5093778;28;20066;-88
2022/12/09 06:56:03;;;;;;;37.22;20.90;;;;;;;1.09;100.00;100551.53;5093970;28;20545;-88
2022/12/09 06:58:45;;;;;;;36.95;21.23;;;;;;;0.98;100.00;100542.81;5093988;28;20048;-87
2022/12/09 07:01:16;;;;;;;38.22;22.33;;;;;;;0.87;100.00;100543.47;5094022;28;20028;-88
2022/12/09 07:06:30;;;;;;;49.13;28.70;;;;;;;0.51;100.00;100549.53;5101109;22;20067;-87
2022/12/09 07:08:58;;;;;;;48.17;28.85;;;;;;;0.44;100.00;100555.38;5095068;28;20451;-88
2022/12/09 07:11:24;;;;;;;45.20;26.27;;;;;;;0.42;100.00;100557.91;5093604;28;20024;-87
2022/12/09 07:13:49;;;;;;;43.38;25.05;;;;;;;0.40;100.00;100557.00;5092776;28;20074;-85
2022/12/09 07:16:14;;;;;;;44.75;26.17;;;;;;;0.39;100.00;100562.09;5093087;28;20503;-85
2022/12/09 07:18:40;;;;;;;38.83;22.33;;;;;;;0.41;100.00;100560.41;5093415;28;20115;-86
2022/12/09 07:21:10;;;;;;;35.22;19.98;;;;;;;0.44;100.00;100570.69;5092425;28;20484;-87
2022/12/09 07:23:37;;;;;;;36.00;20.23;;;;;;;0.46;100.00;100567.31;5093899;28;20127;-88
2022/12/09 07:26:04;;;;;;;39.83;23.27;;;;;;;0.41;100.00;100562.94;5094393;28;20077;-88
2022/12/09 07:28:30;;;;;;;38.00;21.63;;;;;;;0.40;100.00;100574.88;5101454;28;20054;-88
2022/12/09 07:30:55;;;;;;;33.85;19.92;;;;;;;0.45;100.00;100572.41;5095074;28;20028;-88
2022/12/09 07:33:20;;;;;;;30.63;16.80;;;;;;;0.49;100.00;100575.88;5095284;28;20032;-88
2022/12/09 07:35:46;;;;;;;29.83;16.00;;;;;;;0.52;100.00;100575.97;5094249;28;20051;-88
2022/12/09 07:38:11;;;;;;;33.58;18.55;;;;;;;0.50;100.00;100573.38;5093919;28;20049;-88
2022/12/09 07:40:39;;;;;;;30.90;17.20;;;;;;;0.51;100.00;100576.78;5093870;28;20020;-88
2022/12/09 07:43:05;;;;;;;28.65;15.27;;;;;;;0.55;100.00;100586.25;5093674;28;20016;-88
2022/12/09 07:45:33;;;;;;;28.55;15.85;;;;;;;0.55;100.00;100583.69;5093754;28;20028;-88
2022/12/09 07:47:58;;;;;;;25.83;13.98;;;;;;;0.54;100.00;100582.81;5093978;28;20024;-88
2022/12/09 07:50:24;;;;;;;25.25;12.95;;;;;;;0.55;100.00;100586.25;5093127;28;20039;-88
2022/12/09 07:52:49;;;;;;;28.23;14.88;;;;;;;0.53;100.00;100590.47;5093633;28;20142;-88
2022/12/09 07:55:14;;;;;;;25.42;13.15;;;;;;;0.53;100.00;100590.47;5093292;28;20068;-88
2022/12/09 07:57:39;;;;;;;24.63;12.70;;;;;;;0.54;100.00;100587.09;5093911;28;20039;-88
2022/12/09 08:00:05;;;;;;;24.27;11.95;;;;;;;0.58;100.00;100593.97;5093606;28;20041;-87
2022/12/09 08:02:31;;;;;;;23.15;10.88;;;;;;;0.59;100.00;100588.91;5092949;28;20021;-87
2022/12/09 08:04:56;;;;;;;20.70;9.77;;;;;;;0.61;100.00;100592.34;5093194;28;20067;-87
2022/12/09 08:07:22;;;;;;;21.58;10.50;;;;;;;0.63;100.00;100597.50;5092824;28;20028;-87
2022/12/09 08:09:47;;;;;;;20.80;9.60;;;;;;;0.61;100.00;100592.34;5089953;28;20020;-87
2022/12/09 08:12:12;;;;;;;23.10;11.00;;;;;;;0.71;100.00;100585.72;5092556;28;20052;-86
2022/12/09 08:14:38;;;;;;;24.77;12.43;;;;;;;0.63;100.00;100588.94;5096340;28;20027;-89
2022/12/09 08:17:03;;;;;;;24.15;11.75;;;;;;;0.58;100.00;100589.72;5097375;28;20486;-88
2022/12/09 08:19:29;;;;;;;23.75;11.48;;;;;;;0.59;100.00;100595.69;5097896;28;20024;-89
2022/12/09 08:21:54;;;;;;;21.80;10.18;;;;;;;0.57;100.00;100592.22;5084862;28;20023;-87
2022/12/09 08:24:20;;;;;;;25.80;13.43;;;;;;;0.52;100.00;100586.19;5077018;28;20449;-88
2022/12/09 08:26:49;;;;;;;25.02;12.70;;;;;;;0.49;100.00;100593.75;5093488;28;20028;-88
2022/12/09 08:29:14;;;;;;;23.67;11.45;;;;;;;0.50;100.00;100596.38;5096456;28;20110;-86
2022/12/09 08:31:41;;;;;;;21.70;10.27;;;;;;;0.50;100.00;100596.38;5097746;28;20053;-91
2022/12/09 08:34:06;;;;;;;21.48;10.18;;;;;;;0.50;100.00;100593.81;5096007;28;20051;-88
2022/12/09 08:36:32;;;;;;;20.38;9.50;;;;;;;0.50;100.00;100596.38;5095392;28;20456;-88
2022/12/09 08:38:59;;;;;;;23.63;10.80;;;;;;;0.50;100.00;100585.28;5095625;28;20026;-88
2022/12/09 08:41:43;;;;;;;;;;;;;;;0.53;100.00;100587.91;5096011;28;20066;-87
2022/12/09 08:44:09;;;;;;;21.73;10.35;;;;;;;0.51;100.00;100581.91;5097183;28;19999;-89
2022/12/09 08:46:36;;;;;;;22.60;10.82;;;;;;;0.49;100.00;100586.97;5096977;28;20106;-85
2022/12/09 08:49:23;;;;;;;24.45;12.00;;;;;;;0.52;100.00;100581.91;5096844;28;20030;-86
2022/12/09 08:51:52;;;;;;;27.08;13.32;;;;;;;0.46;100.00;100576.69;5095998;28;20078;-85
2022/12/09 08:54:18;;;;;;;25.55;13.20;;;;;;;0.48;100.00;100577.59;5095843;28;20103;-86
2022/12/09 08:56:45;;;;;;;25.80;12.75;;;;;;;0.45;100.00;100578.38;5096412;28;20027;-86
2022/12/09 08:59:11;;;;;;;24.77;12.20;;;;;;;0.46;100.00;100587.75;5095266;28;20534;-86
2022/12/09 09:01:54;;;;;;;23.42;11.27;;;;;;;0.46;100.00;100590.31;5096444;28;20063;-86
2022/12/09 09:05:27;;;;;;;23.75;11.20;;;;;;;0.50;100.00;100581.06;5093596;28;20056;-85
2022/12/09 09:08:59;;;;;;;23.65;11.43;;;;;;;0.53;100.00;100587.91;5096275;28;20063;-86
2022/12/09 09:12:14;;;;;;;23.25;11.02;;;;;;;0.54;100.00;100597.28;5094994;28;20085;-85
2022/12/09 09:15:29;;;;;;;23.30;10.82;;;;;;;0.57;100.00;100603.31;5096040;28;20097;-85
2022/12/09 09:18:44;;;;;;;22.95;10.25;;;;;;;0.63;100.00;100600.03;5096014;28;20036;-85
2022/12/09 09:21:35;;;;;;;23.88;11.60;;;;;;;0.69;100.00;100606.97;5095492;28;20039;-85
2022/12/09 09:24:00;;;;;;;27.15;13.27;;;;;;;0.68;100.00;100605.25;5095548;28;20043;-85
2022/12/09 09:26:45;;;;;;;29.92;15.73;;;;;;;0.63;100.00;100605.16;5095037;28;20357;-86
2022/12/09 09:29:13;;;;;;;42.97;25.13;;;;;;;0.54;100.00;100607.50;5095521;28;20016;-86
2022/12/09 09:31:52;;;;;;;42.22;25.45;;;;;;;0.44;100.00;100603.88;5095590;28;20020;-86
2022/12/09 09:34:19;;;;;;;42.53;24.73;;;;;;;0.45;100.00;100608.16;5095098;28;20016;-86
2022/12/09 09:36:57;;;;;;;41.42;23.33;;;;;;;0.50;100.00;100611.69;5095286;28;20023;-86
2022/12/09 09:39:28;;;;;;;39.53;22.92;;;;;;;0.55;100.00;100612.63;5094779;28;20161;-85
2022/12/09 09:42:17;;;;;;;36.30;19.98;;;;;;;0.64;100.00;100614.53;5095902;28;20425;-86
2022/12/09 09:45:12;;;;;;;36.53;19.65;;;;;;;0.67;100.00;100609.50;5095471;28;20120;-86
2022/12/09 09:48:01;;;;;;;31.00;16.73;;;;;;;0.76;100.00;100604.59;5094460;28;20036;-86
2022/12/09 09:51:13;;;;;;;29.30;14.93;;;;;;;0.86;100.00;100612.44;5094637;28;20456;-86
2022/12/09 09:53:39;;;;;;;41.22;23.42;;;;;;;0.81;100.00;100593.56;5095174;28;20047;-85
2022/12/09 09:56:35;;;;;;;39.40;22.00;;;;;;;0.89;100.00;100597.19;5095043;28;20476;-85
2022/12/09 09:59:31;;;;;;;34.97;19.88;;;;;;;1.00;100.00;100597.38;5095137;28;20024;-86
2022/12/09 10:02:17;;;;;;;32.22;16.95;;;;;;;1.15;100.00;100594.25;5094567;28;20392;-85
2022/12/09 10:12:06;;;;;;;32.92;17.65;;;;;;;1.39;100.00;100599.84;5074956;28;20051;-87
2022/12/09 10:15:09;;;;;;;40.90;22.92;;;;;;;1.27;99.20;100596.19;5075028;28;20362;-86
2022/12/09 10:17:54;;;;;;;46.08;26.48;;;;;;;1.02;99.12;100596.56;5074979;28;20036;-86
2022/12/09 10:20:24;;;;;;;44.78;27.13;;;;;;;0.83;99.64;100597.03;5074671;28;20476;-86
2022/12/09 10:23:13;;;;;;;48.90;28.85;;;;;;;0.67;100.00;100604.41;5074189;28;20522;-86
2022/12/09 10:26:05;;;;;;;45.92;27.45;;;;;;;0.59;100.00;100601.66;5074528;28;20020;-86
2022/12/09 10:29:20;;;;;;;46.47;26.00;;;;;;;0.50;100.00;100603.16;5074721;28;20115;-85
2022/12/09 10:31:46;;;;;;;;;;;;;;;0.53;100.00;100601.53;5074360;28;20029;-85
2022/12/09 10:34:29;;;;;;;43.87;25.30;;;;;;;0.60;100.00;100600.84;5074177;28;20368;-85
2022/12/09 10:36:54;;;;;;;45.60;26.10;;;;;;;0.65;100.00;100600.06;5072488;28;20032;-86
2022/12/09 10:39:29;;;;;;;49.40;28.77;;;;;;;0.64;100.00;100594.09;5074073;28;20491;-85
2022/12/09 10:44:40;;;;;;;48.58;27.58;;;;;;;0.74;100.00;100598.56;5073979;28;20036;-85
2022/12/09 10:47:17;;;;;;;51.67;29.17;;;;;;;0.86;100.00;100589.44;5073982;28;20032;-86
2022/12/09 10:49:43;;;;;;;53.67;30.38;;;;;;;0.82;100.00;100592.75;5074263;28;20365;-85
2022/12/09 10:52:24;;;;;;;45.72;26.13;;;;;;;0.91;100.00;100591.25;5073631;28;20021;-86
2022/12/09 10:54:49;;;;;;;41.28;22.92;;;;;;;1.11;100.00;100589.94;5073566;28;20046;-85
2022/12/09 10:57:14;;;;;;;36.13;20.35;;;;;;;1.18;100.00;100589.22;5072910;28;20103;-85
2022/12/09 11:00:00;;;;;;;39.65;21.17;;;;;;;1.20;99.27;100587.56;5073842;28;20036;-86
2022/12/09 11:02:42;;;;;;;36.70;20.77;;;;;;;1.21;99.20;100571.38;5088687;22;20040;-87
2022/12/09 11:05:34;;;;;;;45.22;24.33;;;;;;;1.06;96.94;100587.28;5093247;28;20020;-87
2022/12/09 11:08:00;;;;;;;45.67;25.05;;;;;;;0.97;97.53;100579.41;5086736;28;20427;-86
2022/12/09 11:10:28;;;;;;;46.77;25.73;;;;;;;0.91;97.97;100581.03;5093913;28;20031;-87
2022/12/09 11:13:01;;;;;;;40.47;21.23;;;;;;;0.98;99.04;100579.47;5093217;28;20024;-86
2022/12/09 11:15:42;;;;;;;35.88;19.55;;;;;;;1.08;99.77;100583.94;5093929;28;20043;-86
2022/12/09 11:18:25;;;;;;;33.42;16.67;;;;;;;1.17;99.50;100583.25;5092924;28;20384;-86
2022/12/09 11:20:56;;;;;;;39.33;21.05;;;;;;;1.08;97.68;100583.94;5093766;28;20024;-86
2022/12/09 11:23:22;;;;;;;37.08;19.33;;;;;;;1.06;98.59;100580.47;5093449;28;20392;-86
2022/12/09 11:25:56;;;;;;;34.00;17.90;;;;;;;1.11;99.32;100580.56;5092932;28;20081;-86
2022/12/09 11:28:36;;;;;;;35.63;18.60;;;;;;;1.16;98.91;100580.66;5093540;28;20047;-86
2022/12/09 11:31:01;;;;;;;32.20;16.58;;;;;;;1.19;99.61;100580.72;5093743;28;20063;-86
2022/12/09 11:33:30;;;;;;;32.65;17.92;;;;;;;1.17;98.26;100583.25;5092798;28;20054;-86
2022/12/09 11:36:04;;;;;;;38.20;20.63;;;;;;;1.13;98.01;100583.13;5109742;22;20074;-86
2022/12/09 11:38:29;;;;;;;36.22;19.70;;;;;;;1.16;98.44;100583.19;5114029;28;20026;-85
2022/12/09 11:41:10;;;;;;;34.13;18.20;;;;;;;1.18;98.40;100573.88;5112861;28;20020;-86
2022/12/09 11:43:54;;;;;;;39.30;20.80;;;;;;;1.10;96.54;100578.84;5113418;28;20016;-85
2022/12/09 11:46:30;;;;;;;37.45;19.42;;;;;;;1.12;97.46;100576.31;5112143;28;20023;-85
2022/12/09 11:49:00;;;;;;;35.72;19.00;;;;;;;1.16;97.67;100575.53;5113336;28;20027;-85
2022/12/09 11:51:29;;;;;;;32.50;18.40;;;;;;;1.16;97.79;100572.97;5113364;28;20072;-84
2022/12/09 11:54:18;;;;;;;30.55;16.30;;;;;;;1.19;98.60;100568.78;5112602;28;20368;-85
2022/12/09 11:56:48;;;;;;;31.23;16.17;;;;;;;1.21;97.81;100573.94;5112637;28;20050;-85
2022/12/09 11:59:39;;;;;;;31.60;16.75;;;;;;;1.21;97.98;100574.78;5113013;28;20095;-87
2022/12/09 12:02:13;;;;;;;38.30;19.98;;;;;;;1.13;96.20;100567.78;5112340;28;20524;-86
2022/12/09 12:04:57;;;;;;;40.90;21.40;;;;;;;1.18;97.67;100572.16;5113989;28;20099;-85